createdAt,value
2019-02-26T00:00:10.720Z,1.8
2019-02-26T00:30:11.273Z,1.9
2019-02-26T01:02:17.430Z,1.4
2019-02-26T01:15:13.520Z,1.2
2019-02-26T01:45:09.798Z,0.9
2019-02-26T02:00:09.765Z,0.9
2019-02-26T02:15:14.575Z,0.8
2019-02-26T02:30:18.621Z,0.7
2019-02-26T02:45:14.325Z,0.7
2019-02-26T03:00:10.569Z,0.8
2019-02-26T03:17:21.372Z,0.5
2019-02-26T03:32:20.442Z,0.3
2019-02-26T03:47:21.559Z,0.3
2019-02-26T04:02:23.276Z,0.3
2019-02-26T04:15:10.736Z,0.1
2019-02-26T04:32:21.539Z,0.1
2019-02-26T04:45:10.816Z,0.1
2019-02-26T05:02:21.063Z,-0.1
2019-02-26T05:15:17.055Z,0
2019-02-26T06:00:20.610Z,-0.1
2019-02-26T06:15:11.860Z,0
2019-02-26T06:30:12.616Z,0.1
2019-02-26T06:45:16.365Z,0.3
2019-02-26T07:00:11.952Z,0.3
2019-02-26T07:32:14.745Z,0.6
2019-02-26T07:45:04.041Z,0.8
2019-02-26T08:02:13.975Z,1
2019-02-26T08:15:10.043Z,1.2
2019-02-26T08:30:04.154Z,1.7
2019-02-26T08:45:04.287Z,2.4
2019-02-26T09:00:04.732Z,3.1
2019-02-26T09:15:04.861Z,3.8
2019-02-26T09:30:08.942Z,4.4
2019-02-26T09:45:04.888Z,5.2
2019-02-26T10:02:14.752Z,5.8
2019-02-26T10:15:05.442Z,6.2
2019-02-26T10:30:10.029Z,6.5
2019-02-26T10:45:05.018Z,7
2019-02-26T11:00:10.917Z,7.4
2019-02-26T11:17:17.867Z,7.9
2019-02-26T11:30:06.874Z,8.4
2019-02-26T11:47:18.257Z,9
2019-02-26T12:02:25.091Z,9.3
2019-02-26T12:15:12.325Z,9.7
2019-02-26T12:32:19.494Z,9.9
2019-02-26T12:47:21.654Z,10.2
2019-02-26T13:00:12.821Z,10.6
2019-02-26T13:15:10.135Z,10.6
2019-02-26T13:32:21.010Z,10.7
2019-02-26T13:47:19.285Z,10.8
2019-02-26T14:17:19.450Z,10.9
2019-02-26T14:47:21.723Z,11
2019-02-26T15:00:11.091Z,10.9
2019-02-26T15:15:11.155Z,10.6
2019-02-26T15:47:22.081Z,10.4
2019-02-26T16:02:21.165Z,9.9
2019-02-26T16:15:12.540Z,9.7
2019-02-26T16:32:13.178Z,9.6
2019-02-26T16:45:03.144Z,9.3
2019-02-26T17:02:13.408Z,8.6
2019-02-26T17:17:14.498Z,7.8
2019-02-26T17:32:13.541Z,7.3
2019-02-26T18:00:04.094Z,6.6
2019-02-26T18:15:04.162Z,6.2
2019-02-26T18:30:04.230Z,6
2019-02-26T18:47:15.033Z,5.9
2019-02-26T19:00:05.892Z,5.5
2019-02-26T19:15:09.875Z,5.2
2019-02-26T19:30:05.379Z,5
2019-02-26T19:45:11.719Z,4.8
2019-02-26T20:02:18.609Z,4.6
2019-02-26T20:15:07.848Z,4.7
2019-02-26T20:30:03.464Z,4.4
2019-02-26T20:45:03.580Z,4.2
2019-02-26T21:02:14.894Z,4.2
2019-02-26T21:15:04.048Z,4.5
2019-02-26T21:30:04.157Z,4.3
2019-02-26T21:45:04.164Z,4
2019-02-26T22:02:19.483Z,3.8
2019-02-26T22:30:09.115Z,3.4
2019-02-26T22:45:09.169Z,3.1
2019-02-26T23:02:19.758Z,3.2
2019-02-26T23:17:19.310Z,3.2
2019-02-26T23:30:09.973Z,3
2019-02-26T23:47:22.358Z,2.8
